sensor_id;sensor_type;location;lat;lon;timestamp;P1;durP1;ratioP1;P2;durP2;ratioP2
67564;SDS011;54393;53.556;49.216;2022-12-18T00:01:53;4.68;;;4.28;;
67564;SDS011;54393;53.556;49.216;2022-12-18T00:04:22;5.00;;;4.60;;
67564;SDS011;54393;53.556;49.216;2022-12-18T00:06:49;4.85;;;4.45;;
67564;SDS011;54393;53.556;49.216;2022-12-18T00:09:16;5.50;;;4.85;;
67564;SDS011;54393;53.556;49.216;2022-12-18T00:11:42;4.75;;;4.35;;
67564;SDS011;54393;53.556;49.216;2022-12-18T00:14:09;4.85;;;4.45;;
67564;SDS011;54393;53.556;49.216;2022-12-18T00:16:37;5.80;;;4.62;;
67564;SDS011;54393;53.556;49.216;2022-12-18T00:19:04;6.72;;;4.80;;
67564;SDS011;54393;53.556;49.216;2022-12-18T00:21:31;5.32;;;4.75;;
67564;SDS011;54393;53.556;49.216;2022-12-18T00:23:58;4.75;;;4.35;;
67564;SDS011;54393;53.556;49.216;2022-12-18T00:26:26;5.30;;;4.80;;
67564;SDS011;54393;53.556;49.216;2022-12-18T00:28:53;5.00;;;4.60;;
67564;SDS011;54393;53.556;49.216;2022-12-18T00:31:22;4.95;;;4.55;;
67564;SDS011;54393;53.556;49.216;2022-12-18T00:33:49;4.78;;;4.30;;
67564;SDS011;54393;53.556;49.216;2022-12-18T00:36:17;5.18;;;4.68;;
67564;SDS011;54393;53.556;49.216;2022-12-18T00:38:45;4.72;;;4.32;;
67564;SDS011;54393;53.556;49.216;2022-12-18T00:41:12;5.28;;;4.78;;
67564;SDS011;54393;53.556;49.216;2022-12-18T00:44:00;5.05;;;4.50;;
67564;SDS011;54393;53.556;49.216;2022-12-18T00:46:26;5.05;;;4.55;;
67564;SDS011;54393;53.556;49.216;2022-12-18T00:48:53;5.45;;;4.95;;
67564;SDS011;54393;53.556;49.216;2022-12-18T00:51:19;5.25;;;4.78;;
67564;SDS011;54393;53.556;49.216;2022-12-18T00:53:46;5.10;;;4.60;;
67564;SDS011;54393;53.556;49.216;2022-12-18T00:56:12;7.32;;;4.82;;
67564;SDS011;54393;53.556;49.216;2022-12-18T00:58:39;5.47;;;4.97;;
67564;SDS011;54393;53.556;49.216;2022-12-18T01:01:05;5.03;;;4.57;;
67564;SDS011;54393;53.556;49.216;2022-12-18T01:03:31;4.80;;;4.40;;
67564;SDS011;54393;53.556;49.216;2022-12-18T01:05:58;8.00;;;4.78;;
67564;SDS011;54393;53.556;49.216;2022-12-18T01:08:24;4.80;;;4.37;;
67564;SDS011;54393;53.556;49.216;2022-12-18T01:10:51;4.82;;;4.35;;
67564;SDS011;54393;53.556;49.216;2022-12-18T01:13:17;5.10;;;4.70;;
67564;SDS011;54393;53.556;49.216;2022-12-18T01:15:50;5.37;;;4.53;;
67564;SDS011;54393;53.556;49.216;2022-12-18T01:18:16;5.22;;;4.75;;
67564;SDS011;54393;53.556;49.216;2022-12-18T01:20:43;5.50;;;5.00;;
67564;SDS011;54393;53.556;49.216;2022-12-18T01:23:10;6.35;;;4.70;;
67564;SDS011;54393;53.556;49.216;2022-12-18T01:25:36;5.60;;;4.75;;
67564;SDS011;54393;53.556;49.216;2022-12-18T01:28:03;4.90;;;4.50;;
67564;SDS011;54393;53.556;49.216;2022-12-18T01:30:29;4.43;;;4.03;;
67564;SDS011;54393;53.556;49.216;2022-12-18T01:32:56;4.78;;;4.37;;
67564;SDS011;54393;53.556;49.216;2022-12-18T01:35:22;6.62;;;5.00;;
67564;SDS011;54393;53.556;49.216;2022-12-18T01:37:49;5.15;;;4.62;;
67564;SDS011;54393;53.556;49.216;2022-12-18T01:40:19;5.57;;;5.07;;
67564;SDS011;54393;53.556;49.216;2022-12-18T01:42:49;5.15;;;4.68;;
67564;SDS011;54393;53.556;49.216;2022-12-18T01:45:28;5.20;;;4.43;;
67564;SDS011;54393;53.556;49.216;2022-12-18T01:50:34;5.47;;;4.37;;
67564;SDS011;54393;53.556;49.216;2022-12-18T01:55:35;5.20;;;4.70;;
67564;SDS011;54393;53.556;49.216;2022-12-18T01:58:08;5.45;;;4.72;;
67564;SDS011;54393;53.556;49.216;2022-12-18T02:00:34;4.97;;;4.57;;
67564;SDS011;54393;53.556;49.216;2022-12-18T02:03:01;5.18;;;4.68;;
67564;SDS011;54393;53.556;49.216;2022-12-18T02:05:44;4.75;;;4.25;;
67564;SDS011;54393;53.556;49.216;2022-12-18T02:16:39;5.10;;;4.70;;
67564;SDS011;54393;53.556;49.216;2022-12-18T02:22:29;5.18;;;4.57;;
67564;SDS011;54393;53.556;49.216;2022-12-18T02:25:11;4.55;;;4.05;;
67564;SDS011;54393;53.556;49.216;2022-12-18T02:27:42;5.40;;;4.30;;
67564;SDS011;54393;53.556;49.216;2022-12-18T02:30:11;4.30;;;4.00;;
67564;SDS011;54393;53.556;49.216;2022-12-18T02:32:39;5.50;;;4.20;;
67564;SDS011;54393;53.556;49.216;2022-12-18T02:35:10;4.72;;;4.32;;
67564;SDS011;54393;53.556;49.216;2022-12-18T02:37:42;5.03;;;4.57;;
67564;SDS011;54393;53.556;49.216;2022-12-18T02:40:10;5.10;;;4.60;;
67564;SDS011;54393;53.556;49.216;2022-12-18T02:42:38;5.45;;;4.62;;
67564;SDS011;54393;53.556;49.216;2022-12-18T02:45:04;4.30;;;3.90;;
67564;SDS011;54393;53.556;49.216;2022-12-18T02:47:32;4.80;;;4.40;;
67564;SDS011;54393;53.556;49.216;2022-12-18T02:50:07;4.57;;;4.28;;
67564;SDS011;54393;53.556;49.216;2022-12-18T02:53:04;4.78;;;4.30;;
67564;SDS011;54393;53.556;49.216;2022-12-18T02:58:45;4.80;;;4.40;;
67564;SDS011;54393;53.556;49.216;2022-12-18T03:03:56;4.57;;;4.03;;
67564;SDS011;54393;53.556;49.216;2022-12-18T03:06:38;4.40;;;4.00;;
67564;SDS011;54393;53.556;49.216;2022-12-18T03:09:09;4.70;;;4.30;;
67564;SDS011;54393;53.556;49.216;2022-12-18T03:11:41;4.28;;;3.97;;
67564;SDS011;54393;53.556;49.216;2022-12-18T03:14:30;4.87;;;4.30;;
67564;SDS011;54393;53.556;49.216;2022-12-18T03:16:59;4.10;;;3.70;;
67564;SDS011;54393;53.556;49.216;2022-12-18T03:19:28;4.00;;;3.70;;
67564;SDS011;54393;53.556;49.216;2022-12-18T03:21:57;4.12;;;3.83;;
67564;SDS011;54393;53.556;49.216;2022-12-18T03:24:26;4.10;;;3.17;;
67564;SDS011;54393;53.556;49.216;2022-12-18T03:26:56;3.80;;;3.50;;
67564;SDS011;54393;53.556;49.216;2022-12-18T03:29:27;4.40;;;4.00;;
67564;SDS011;54393;53.556;49.216;2022-12-18T03:32:00;4.28;;;3.87;;
67564;SDS011;54393;53.556;49.216;2022-12-18T03:34:30;3.90;;;3.60;;
67564;SDS011;54393;53.556;49.216;2022-12-18T03:37:02;4.35;;;3.83;;
67564;SDS011;54393;53.556;49.216;2022-12-18T03:39:29;4.03;;;3.70;;
67564;SDS011;54393;53.556;49.216;2022-12-18T03:41:58;3.90;;;3.60;;
67564;SDS011;54393;53.556;49.216;2022-12-18T03:47:26;4.00;;;3.70;;
67564;SDS011;54393;53.556;49.216;2022-12-18T03:52:40;3.97;;;3.58;;
67564;SDS011;54393;53.556;49.216;2022-12-18T03:55:16;4.35;;;3.67;;
67564;SDS011;54393;53.556;49.216;2022-12-18T03:57:43;3.80;;;3.50;;
67564;SDS011;54393;53.556;49.216;2022-12-18T04:00:11;3.53;;;3.22;;
67564;SDS011;54393;53.556;49.216;2022-12-18T04:02:40;3.72;;;3.45;;
67564;SDS011;54393;53.556;49.216;2022-12-18T04:05:19;3.47;;;3.28;;
67564;SDS011;54393;53.556;49.216;2022-12-18T04:07:47;3.70;;;3.28;;
67564;SDS011;54393;53.556;49.216;2022-12-18T04:10:14;4.03;;;3.72;;
67564;SDS011;54393;53.556;49.216;2022-12-18T04:12:41;3.70;;;3.40;;
67564;SDS011;54393;53.556;49.216;2022-12-18T04:15:08;3.60;;;3.30;;
67564;SDS011;54393;53.556;49.216;2022-12-18T04:17:35;2.87;;;2.70;;
67564;SDS011;54393;53.556;49.216;2022-12-18T04:20:02;3.85;;;3.53;;
67564;SDS011;54393;53.556;49.216;2022-12-18T04:22:29;3.25;;;3.05;;
67564;SDS011;54393;53.556;49.216;2022-12-18T04:24:55;3.10;;;2.90;;
67564;SDS011;54393;53.556;49.216;2022-12-18T04:27:22;3.40;;;3.12;;
67564;SDS011;54393;53.556;49.216;2022-12-18T04:29:48;3.08;;;2.87;;
67564;SDS011;54393;53.556;49.216;2022-12-18T04:32:14;2.87;;;2.67;;
67564;SDS011;54393;53.556;49.216;2022-12-18T04:34:41;3.42;;;3.12;;
67564;SDS011;54393;53.556;49.216;2022-12-18T04:37:08;3.35;;;3.05;;
67564;SDS011;54393;53.556;49.216;2022-12-18T04:39:34;3.47;;;3.20;;
67564;SDS011;54393;53.556;49.216;2022-12-18T04:42:01;2.95;;;2.75;;
67564;SDS011;54393;53.556;49.216;2022-12-18T04:44:27;2.80;;;2.60;;
67564;SDS011;54393;53.556;49.216;2022-12-18T04:46:54;3.35;;;3.05;;
67564;SDS011;54393;53.556;49.216;2022-12-18T04:49:21;2.60;;;2.40;;
67564;SDS011;54393;53.556;49.216;2022-12-18T04:51:47;2.92;;;2.67;;
67564;SDS011;54393;53.556;49.216;2022-12-18T04:54:14;3.97;;;2.90;;
67564;SDS011;54393;53.556;49.216;2022-12-18T04:56:40;3.00;;;2.70;;
67564;SDS011;54393;53.556;49.216;2022-12-18T04:59:06;3.05;;;2.85;;
67564;SDS011;54393;53.556;49.216;2022-12-18T05:01:33;3.00;;;2.72;;
67564;SDS011;54393;53.556;49.216;2022-12-18T05:04:00;3.00;;;2.80;;
67564;SDS011;54393;53.556;49.216;2022-12-18T05:06:26;4.28;;;3.33;;
67564;SDS011;54393;53.556;49.216;2022-12-18T05:08:53;2.58;;;2.42;;
67564;SDS011;54393;53.556;49.216;2022-12-18T05:11:20;3.33;;;2.78;;
67564;SDS011;54393;53.556;49.216;2022-12-18T05:13:46;4.40;;;2.60;;
67564;SDS011;54393;53.556;49.216;2022-12-18T05:16:13;2.80;;;2.60;;
67564;SDS011;54393;53.556;49.216;2022-12-18T05:18:40;2.58;;;2.37;;
67564;SDS011;54393;53.556;49.216;2022-12-18T05:21:06;2.90;;;2.70;;
67564;SDS011;54393;53.556;49.216;2022-12-18T05:23:33;3.10;;;2.65;;
67564;SDS011;54393;53.556;49.216;2022-12-18T05:26:01;2.25;;;2.05;;
67564;SDS011;54393;53.556;49.216;2022-12-18T05:28:29;2.87;;;2.67;;
67564;SDS011;54393;53.556;49.216;2022-12-18T05:30:59;3.17;;;2.70;;
67564;SDS011;54393;53.556;49.216;2022-12-18T05:33:29;2.20;;;2.10;;
67564;SDS011;54393;53.556;49.216;2022-12-18T05:35:57;3.05;;;2.85;;
67564;SDS011;54393;53.556;49.216;2022-12-18T05:38:25;4.68;;;2.58;;
67564;SDS011;54393;53.556;49.216;2022-12-18T05:40:52;2.58;;;2.37;;
67564;SDS011;54393;53.556;49.216;2022-12-18T05:43:19;2.62;;;2.40;;
67564;SDS011;54393;53.556;49.216;2022-12-18T05:45:49;2.83;;;2.58;;
67564;SDS011;54393;53.556;49.216;2022-12-18T05:48:16;2.70;;;2.50;;
67564;SDS011;54393;53.556;49.216;2022-12-18T05:50:44;2.65;;;2.45;;
67564;SDS011;54393;53.556;49.216;2022-12-18T05:53:12;3.10;;;2.58;;
67564;SDS011;54393;53.556;49.216;2022-12-18T05:55:40;2.28;;;2.08;;
67564;SDS011;54393;53.556;49.216;2022-12-18T05:58:08;2.60;;;2.40;;
67564;SDS011;54393;53.556;49.216;2022-12-18T06:00:36;4.90;;;3.03;;
67564;SDS011;54393;53.556;49.216;2022-12-18T06:03:07;2.55;;;2.35;;
67564;SDS011;54393;53.556;49.216;2022-12-18T06:05:35;3.97;;;2.58;;
67564;SDS011;54393;53.556;49.216;2022-12-18T06:08:02;3.03;;;2.50;;
67564;SDS011;54393;53.556;49.216;2022-12-18T06:10:29;2.62;;;2.42;;
67564;SDS011;54393;53.556;49.216;2022-12-18T06:12:56;2.78;;;2.58;;
67564;SDS011;54393;53.556;49.216;2022-12-18T06:15:22;4.12;;;2.55;;
67564;SDS011;54393;53.556;49.216;2022-12-18T06:17:49;4.55;;;3.17;;
67564;SDS011;54393;53.556;49.216;2022-12-18T06:20:16;2.50;;;2.30;;
67564;SDS011;54393;53.556;49.216;2022-12-18T06:22:42;3.25;;;2.95;;
67564;SDS011;54393;53.556;49.216;2022-12-18T06:25:09;3.78;;;2.67;;
67564;SDS011;54393;53.556;49.216;2022-12-18T06:27:35;2.80;;;2.60;;
67564;SDS011;54393;53.556;49.216;2022-12-18T06:30:02;4.07;;;3.03;;
67564;SDS011;54393;53.556;49.216;2022-12-18T06:32:29;2.83;;;2.62;;
67564;SDS011;54393;53.556;49.216;2022-12-18T06:34:56;4.60;;;2.80;;
67564;SDS011;54393;53.556;49.216;2022-12-18T06:37:23;3.87;;;3.58;;
67564;SDS011;54393;53.556;49.216;2022-12-18T06:39:51;3.78;;;3.30;;
67564;SDS011;54393;53.556;49.216;2022-12-18T06:42:18;3.37;;;2.80;;
67564;SDS011;54393;53.556;49.216;2022-12-18T06:44:45;3.40;;;3.12;;
67564;SDS011;54393;53.556;49.216;2022-12-18T06:47:11;5.15;;;2.95;;
67564;SDS011;54393;53.556;49.216;2022-12-18T06:49:37;4.40;;;3.12;;
67564;SDS011;54393;53.556;49.216;2022-12-18T06:52:04;6.22;;;3.22;;
67564;SDS011;54393;53.556;49.216;2022-12-18T06:54:30;4.25;;;3.33;;
67564;SDS011;54393;53.556;49.216;2022-12-18T06:56:57;3.35;;;3.05;;
67564;SDS011;54393;53.556;49.216;2022-12-18T06:59:23;4.53;;;3.55;;
67564;SDS011;54393;53.556;49.216;2022-12-18T07:01:49;4.20;;;3.17;;
67564;SDS011;54393;53.556;49.216;2022-12-18T07:04:16;7.57;;;4.25;;
67564;SDS011;54393;53.556;49.216;2022-12-18T07:06:42;4.28;;;3.90;;
67564;SDS011;54393;53.556;49.216;2022-12-18T07:09:09;5.45;;;3.55;;
67564;SDS011;54393;53.556;49.216;2022-12-18T07:11:35;5.45;;;4.00;;
67564;SDS011;54393;53.556;49.216;2022-12-18T07:14:02;3.87;;;3.58;;
67564;SDS011;54393;53.556;49.216;2022-12-18T07:16:28;3.70;;;3.40;;
67564;SDS011;54393;53.556;49.216;2022-12-18T07:18:56;5.32;;;4.25;;
67564;SDS011;54393;53.556;49.216;2022-12-18T07:21:23;5.30;;;4.12;;
67564;SDS011;54393;53.556;49.216;2022-12-18T07:23:50;6.53;;;3.87;;
67564;SDS011;54393;53.556;49.216;2022-12-18T07:26:18;4.37;;;3.97;;
67564;SDS011;54393;53.556;49.216;2022-12-18T07:28:45;4.53;;;4.20;;
67564;SDS011;54393;53.556;49.216;2022-12-18T07:31:13;4.55;;;4.15;;
67564;SDS011;54393;53.556;49.216;2022-12-18T07:33:41;5.05;;;4.55;;
67564;SDS011;54393;53.556;49.216;2022-12-18T07:36:07;4.93;;;4.40;;
67564;SDS011;54393;53.556;49.216;2022-12-18T07:38:34;5.32;;;3.78;;
67564;SDS011;54393;53.556;49.216;2022-12-18T07:41:11;6.05;;;4.18;;
67564;SDS011;54393;53.556;49.216;2022-12-18T07:43:38;6.03;;;4.43;;
67564;SDS011;54393;53.556;49.216;2022-12-18T07:46:05;5.25;;;4.72;;
67564;SDS011;54393;53.556;49.216;2022-12-18T07:48:36;6.18;;;4.22;;
67564;SDS011;54393;53.556;49.216;2022-12-18T07:51:03;5.60;;;4.60;;
67564;SDS011;54393;53.556;49.216;2022-12-18T07:53:31;5.00;;;4.53;;
67564;SDS011;54393;53.556;49.216;2022-12-18T07:55:59;9.70;;;4.80;;
67564;SDS011;54393;53.556;49.216;2022-12-18T07:58:27;5.00;;;4.50;;
67564;SDS011;54393;53.556;49.216;2022-12-18T08:00:54;5.43;;;4.60;;
67564;SDS011;54393;53.556;49.216;2022-12-18T08:03:37;4.60;;;4.20;;
67564;SDS011;54393;53.556;49.216;2022-12-18T08:06:05;5.82;;;4.65;;
67564;SDS011;54393;53.556;49.216;2022-12-18T08:08:33;9.10;;;4.65;;
67564;SDS011;54393;53.556;49.216;2022-12-18T08:11:00;5.80;;;4.72;;
67564;SDS011;54393;53.556;49.216;2022-12-18T08:13:26;5.12;;;4.62;;
67564;SDS011;54393;53.556;49.216;2022-12-18T08:16:00;7.60;;;4.90;;
67564;SDS011;54393;53.556;49.216;2022-12-18T08:18:34;5.70;;;5.10;;
67564;SDS011;54393;53.556;49.216;2022-12-18T08:21:12;7.40;;;4.55;;
67564;SDS011;54393;53.556;49.216;2022-12-18T08:23:43;5.00;;;4.55;;
67564;SDS011;54393;53.556;49.216;2022-12-18T08:26:10;7.18;;;4.90;;
67564;SDS011;54393;53.556;49.216;2022-12-18T08:28:37;5.75;;;4.87;;
67564;SDS011;54393;53.556;49.216;2022-12-18T08:31:04;5.12;;;4.65;;
67564;SDS011;54393;53.556;49.216;2022-12-18T08:33:32;5.35;;;4.62;;
67564;SDS011;54393;53.556;49.216;2022-12-18T08:35:59;6.70;;;4.78;;
67564;SDS011;54393;53.556;49.216;2022-12-18T08:38:26;5.75;;;5.15;;
67564;SDS011;54393;53.556;49.216;2022-12-18T08:41:03;5.93;;;4.55;;
67564;SDS011;54393;53.556;49.216;2022-12-18T08:43:31;5.65;;;4.75;;
67564;SDS011;54393;53.556;49.216;2022-12-18T08:46:16;5.57;;;4.95;;
67564;SDS011;54393;53.556;49.216;2022-12-18T08:48:43;6.95;;;4.90;;
67564;SDS011;54393;53.556;49.216;2022-12-18T08:51:12;6.40;;;5.37;;
67564;SDS011;54393;53.556;49.216;2022-12-18T08:53:42;5.93;;;5.18;;
67564;SDS011;54393;53.556;49.216;2022-12-18T08:56:09;5.18;;;4.75;;
67564;SDS011;54393;53.556;49.216;2022-12-18T08:58:36;5.47;;;4.90;;
67564;SDS011;54393;53.556;49.216;2022-12-18T09:01:03;6.37;;;5.22;;
67564;SDS011;54393;53.556;49.216;2022-12-18T09:03:32;6.40;;;5.05;;
67564;SDS011;54393;53.556;49.216;2022-12-18T09:05:59;5.85;;;5.32;;
67564;SDS011;54393;53.556;49.216;2022-12-18T09:08:25;6.18;;;4.75;;
67564;SDS011;54393;53.556;49.216;2022-12-18T09:10:52;5.32;;;4.93;;
67564;SDS011;54393;53.556;49.216;2022-12-18T09:13:19;5.60;;;5.10;;
67564;SDS011;54393;53.556;49.216;2022-12-18T09:15:47;5.90;;;5.30;;
67564;SDS011;54393;53.556;49.216;2022-12-18T09:18:17;6.20;;;5.03;;
67564;SDS011;54393;53.556;49.216;2022-12-18T09:20:45;5.30;;;4.80;;
67564;SDS011;54393;53.556;49.216;2022-12-18T09:23:11;4.90;;;4.45;;
67564;SDS011;54393;53.556;49.216;2022-12-18T09:25:39;5.12;;;4.62;;
67564;SDS011;54393;53.556;49.216;2022-12-18T09:28:09;5.07;;;4.68;;
67564;SDS011;54393;53.556;49.216;2022-12-18T09:30:39;5.70;;;5.20;;
67564;SDS011;54393;53.556;49.216;2022-12-18T09:33:06;5.20;;;4.70;;
67564;SDS011;54393;53.556;49.216;2022-12-18T09:35:35;5.78;;;4.90;;
67564;SDS011;54393;53.556;49.216;2022-12-18T09:38:02;5.03;;;4.60;;
67564;SDS011;54393;53.556;49.216;2022-12-18T09:40:32;4.90;;;4.50;;
67564;SDS011;54393;53.556;49.216;2022-12-18T09:43:14;5.10;;;4.70;;
67564;SDS011;54393;53.556;49.216;2022-12-18T09:45:55;5.25;;;4.85;;
67564;SDS011;54393;53.556;49.216;2022-12-18T09:48:38;5.28;;;4.55;;
67564;SDS011;54393;53.556;49.216;2022-12-18T09:51:15;4.90;;;4.50;;
67564;SDS011;54393;53.556;49.216;2022-12-18T09:53:57;5.47;;;4.97;;
67564;SDS011;54393;53.556;49.216;2022-12-18T09:56:29;4.60;;;4.20;;
67564;SDS011;54393;53.556;49.216;2022-12-18T09:59:00;5.40;;;4.90;;
67564;SDS011;54393;53.556;49.216;2022-12-18T10:01:28;4.97;;;4.47;;
67564;SDS011;54393;53.556;49.216;2022-12-18T10:03:55;5.05;;;4.65;;
67564;SDS011;54393;53.556;49.216;2022-12-18T10:17:46;5.22;;;4.28;;
67564;SDS011;54393;53.556;49.216;2022-12-18T10:23:09;5.05;;;4.53;;
67564;SDS011;54393;53.556;49.216;2022-12-18T10:28:26;4.22;;;3.90;;
67564;SDS011;54393;53.556;49.216;2022-12-18T10:30:56;4.50;;;4.20;;
67564;SDS011;54393;53.556;49.216;2022-12-18T10:33:23;4.70;;;4.30;;
67564;SDS011;54393;53.556;49.216;2022-12-18T10:35:53;4.28;;;3.92;;
67564;SDS011;54393;53.556;49.216;2022-12-18T10:38:21;4.35;;;3.95;;
67564;SDS011;54393;53.556;49.216;2022-12-18T10:43:33;4.50;;;4.03;;
67564;SDS011;54393;53.556;49.216;2022-12-18T10:48:39;4.40;;;4.00;;
67564;SDS011;54393;53.556;49.216;2022-12-18T10:51:31;4.20;;;3.90;;
67564;SDS011;54393;53.556;49.216;2022-12-18T10:54:06;4.60;;;4.20;;
67564;SDS011;54393;53.556;49.216;2022-12-18T10:56:40;5.37;;;4.03;;
67564;SDS011;54393;53.556;49.216;2022-12-18T10:59:08;4.25;;;3.85;;
67564;SDS011;54393;53.556;49.216;2022-12-18T11:01:57;4.00;;;3.70;;
67564;SDS011;54393;53.556;49.216;2022-12-18T11:04:24;3.85;;;3.58;;
67564;SDS011;54393;53.556;49.216;2022-12-18T11:06:52;4.20;;;3.90;;
67564;SDS011;54393;53.556;49.216;2022-12-18T11:09:20;4.03;;;3.72;;
67564;SDS011;54393;53.556;49.216;2022-12-18T11:11:51;3.60;;;3.40;;
67564;SDS011;54393;53.556;49.216;2022-12-18T11:14:34;4.00;;;3.70;;
67564;SDS011;54393;53.556;49.216;2022-12-18T11:17:19;4.37;;;4.00;;
67564;SDS011;54393;53.556;49.216;2022-12-18T11:19:53;3.95;;;3.65;;
67564;SDS011;54393;53.556;49.216;2022-12-18T11:22:28;4.25;;;3.87;;
67564;SDS011;54393;53.556;49.216;2022-12-18T11:25:39;3.45;;;3.25;;
67564;SDS011;54393;53.556;49.216;2022-12-18T11:27:54;4.03;;;3.72;;
67564;SDS011;54393;53.556;49.216;2022-12-18T11:30:26;4.22;;;3.83;;
67564;SDS011;54393;53.556;49.216;2022-12-18T11:32:59;3.40;;;3.20;;
67564;SDS011;54393;53.556;49.216;2022-12-18T11:43:52;4.07;;;3.78;;
67564;SDS011;54393;53.556;49.216;2022-12-18T11:46:34;3.65;;;3.42;;
67564;SDS011;54393;53.556;49.216;2022-12-18T11:49:17;4.28;;;3.72;;
67564;SDS011;54393;53.556;49.216;2022-12-18T11:54:38;3.47;;;3.28;;
67564;SDS011;54393;53.556;49.216;2022-12-18T12:00:19;3.78;;;3.47;;
67564;SDS011;54393;53.556;49.216;2022-12-18T12:05:39;3.95;;;3.72;;
67564;SDS011;54393;53.556;49.216;2022-12-18T12:08:34;4.20;;;3.80;;
67564;SDS011;54393;53.556;49.216;2022-12-18T12:16:18;3.70;;;3.50;;
67564;SDS011;54393;53.556;49.216;2022-12-18T12:21:40;4.75;;;4.28;;
67564;SDS011;54393;53.556;49.216;2022-12-18T12:24:38;4.03;;;3.72;;
67564;SDS011;54393;53.556;49.216;2022-12-18T12:27:19;4.12;;;3.83;;
67564;SDS011;54393;53.556;49.216;2022-12-18T12:40:48;4.43;;;4.03;;
67564;SDS011;54393;53.556;49.216;2022-12-18T12:43:25;4.57;;;4.22;;
67564;SDS011;54393;53.556;49.216;2022-12-18T12:45:57;4.15;;;3.85;;
67564;SDS011;54393;53.556;49.216;2022-12-18T12:51:11;4.50;;;4.10;;
67564;SDS011;54393;53.556;49.216;2022-12-18T12:53:41;4.40;;;4.00;;
67564;SDS011;54393;53.556;49.216;2022-12-18T12:56:10;4.32;;;3.92;;
67564;SDS011;54393;53.556;49.216;2022-12-18T12:59:01;4.30;;;4.00;;
67564;SDS011;54393;53.556;49.216;2022-12-18T13:04:43;4.28;;;3.97;;
67564;SDS011;54393;53.556;49.216;2022-12-18T13:12:56;4.20;;;3.80;;
67564;SDS011;54393;53.556;49.216;2022-12-18T13:15:45;4.28;;;3.87;;
67564;SDS011;54393;53.556;49.216;2022-12-18T13:18:14;4.50;;;4.07;;
67564;SDS011;54393;53.556;49.216;2022-12-18T13:20:46;4.60;;;4.20;;
67564;SDS011;54393;53.556;49.216;2022-12-18T13:31:12;4.55;;;4.20;;
67564;SDS011;54393;53.556;49.216;2022-12-18T13:33:46;4.40;;;4.10;;
67564;SDS011;54393;53.556;49.216;2022-12-18T13:36:23;4.60;;;4.10;;
67564;SDS011;54393;53.556;49.216;2022-12-18T13:41:40;4.57;;;4.18;;
67564;SDS011;54393;53.556;49.216;2022-12-18T13:46:50;4.22;;;3.92;;
67564;SDS011;54393;53.556;49.216;2022-12-18T13:51:48;4.18;;;3.85;;
67564;SDS011;54393;53.556;49.216;2022-12-18T13:56:48;4.35;;;3.87;;
67564;SDS011;54393;53.556;49.216;2022-12-18T13:59:20;3.92;;;3.62;;
67564;SDS011;54393;53.556;49.216;2022-12-18T14:04:26;3.95;;;3.65;;
67564;SDS011;54393;53.556;49.216;2022-12-18T14:07:12;4.43;;;3.70;;
67564;SDS011;54393;53.556;49.216;2022-12-18T14:09:52;3.97;;;3.67;;
67564;SDS011;54393;53.556;49.216;2022-12-18T14:12:27;4.35;;;3.95;;
67564;SDS011;54393;53.556;49.216;2022-12-18T14:15:56;4.10;;;3.80;;
67564;SDS011;54393;53.556;49.216;2022-12-18T14:20:39;3.85;;;3.58;;
67564;SDS011;54393;53.556;49.216;2022-12-18T14:23:28;3.70;;;3.40;;
67564;SDS011;54393;53.556;49.216;2022-12-18T14:25:58;3.62;;;3.33;;
67564;SDS011;54393;53.556;49.216;2022-12-18T14:28:25;3.15;;;2.95;;
67564;SDS011;54393;53.556;49.216;2022-12-18T14:30:53;3.87;;;3.58;;
67564;SDS011;54393;53.556;49.216;2022-12-18T14:33:21;3.55;;;3.35;;
67564;SDS011;54393;53.556;49.216;2022-12-18T14:35:53;3.37;;;3.12;;
67564;SDS011;54393;53.556;49.216;2022-12-18T14:41:26;3.37;;;3.17;;
67564;SDS011;54393;53.556;49.216;2022-12-18T14:43:47;3.47;;;3.20;;
67564;SDS011;54393;53.556;49.216;2022-12-18T14:51:56;2.87;;;2.67;;
67564;SDS011;54393;53.556;49.216;2022-12-18T14:54:24;3.33;;;3.12;;
67564;SDS011;54393;53.556;49.216;2022-12-18T14:57:01;3.03;;;2.83;;
67564;SDS011;54393;53.556;49.216;2022-12-18T14:59:38;3.47;;;3.03;;
67564;SDS011;54393;53.556;49.216;2022-12-18T15:04:45;2.83;;;2.62;;
67564;SDS011;54393;53.556;49.216;2022-12-18T15:07:16;3.20;;;3.00;;
67564;SDS011;54393;53.556;49.216;2022-12-18T15:10:00;3.15;;;2.95;;
67564;SDS011;54393;53.556;49.216;2022-12-18T15:12:37;3.22;;;3.00;;
67564;SDS011;54393;53.556;49.216;2022-12-18T15:20:41;3.10;;;2.90;;
67564;SDS011;54393;53.556;49.216;2022-12-18T15:23:21;3.12;;;2.92;;
67564;SDS011;54393;53.556;49.216;2022-12-18T15:25:56;2.67;;;2.58;;
67564;SDS011;54393;53.556;49.216;2022-12-18T15:33:42;3.05;;;2.85;;
67564;SDS011;54393;53.556;49.216;2022-12-18T15:36:13;2.80;;;2.60;;
67564;SDS011;54393;53.556;49.216;2022-12-18T15:38:41;3.22;;;3.03;;
67564;SDS011;54393;53.556;49.216;2022-12-18T15:41:14;3.20;;;3.00;;
67564;SDS011;54393;53.556;49.216;2022-12-18T15:43:42;2.78;;;2.58;;
67564;SDS011;54393;53.556;49.216;2022-12-18T15:46:11;2.85;;;2.65;;
67564;SDS011;54393;53.556;49.216;2022-12-18T15:48:39;2.90;;;2.70;;
67564;SDS011;54393;53.556;49.216;2022-12-18T15:53:50;2.90;;;2.70;;
67564;SDS011;54393;53.556;49.216;2022-12-18T15:56:18;2.83;;;2.62;;
67564;SDS011;54393;53.556;49.216;2022-12-18T15:59:07;2.47;;;2.37;;
67564;SDS011;54393;53.556;49.216;2022-12-18T16:01:38;2.45;;;2.35;;
67564;SDS011;54393;53.556;49.216;2022-12-18T16:04:11;2.50;;;2.40;;
67564;SDS011;54393;53.556;49.216;2022-12-18T16:06:40;2.67;;;2.47;;
67564;SDS011;54393;53.556;49.216;2022-12-18T16:09:06;3.03;;;2.70;;
67564;SDS011;54393;53.556;49.216;2022-12-18T16:11:34;2.72;;;2.53;;
67564;SDS011;54393;53.556;49.216;2022-12-18T16:14:06;2.30;;;2.20;;
67564;SDS011;54393;53.556;49.216;2022-12-18T16:16:45;2.72;;;2.53;;
67564;SDS011;54393;53.556;49.216;2022-12-18T16:19:16;2.80;;;2.60;;
67564;SDS011;54393;53.556;49.216;2022-12-18T16:21:46;2.72;;;2.45;;
67564;SDS011;54393;53.556;49.216;2022-12-18T16:24:17;2.40;;;2.30;;
67564;SDS011;54393;53.556;49.216;2022-12-18T16:26:56;2.30;;;2.20;;
67564;SDS011;54393;53.556;49.216;2022-12-18T16:29:24;2.50;;;2.40;;
67564;SDS011;54393;53.556;49.216;2022-12-18T16:31:57;2.17;;;2.08;;
67564;SDS011;54393;53.556;49.216;2022-12-18T16:37:03;3.67;;;2.20;;
67564;SDS011;54393;53.556;49.216;2022-12-18T16:39:31;2.20;;;2.10;;
67564;SDS011;54393;53.556;49.216;2022-12-18T16:42:10;2.50;;;2.40;;
67564;SDS011;54393;53.556;49.216;2022-12-18T16:44:39;2.42;;;2.17;;
67564;SDS011;54393;53.556;49.216;2022-12-18T16:47:06;2.28;;;2.17;;
67564;SDS011;54393;53.556;49.216;2022-12-18T16:49:34;2.10;;;2.00;;
67564;SDS011;54393;53.556;49.216;2022-12-18T16:52:00;2.60;;;2.40;;
67564;SDS011;54393;53.556;49.216;2022-12-18T16:54:27;2.25;;;2.15;;
67564;SDS011;54393;53.556;49.216;2022-12-18T16:56:57;2.50;;;2.40;;
67564;SDS011;54393;53.556;49.216;2022-12-18T16:59:25;2.50;;;2.30;;
67564;SDS011;54393;53.556;49.216;2022-12-18T17:01:51;2.35;;;2.25;;
67564;SDS011;54393;53.556;49.216;2022-12-18T17:04:19;2.17;;;2.08;;
67564;SDS011;54393;53.556;49.216;2022-12-18T17:06:46;2.00;;;1.90;;
67564;SDS011;54393;53.556;49.216;2022-12-18T17:09:18;2.10;;;2.00;;
67564;SDS011;54393;53.556;49.216;2022-12-18T17:11:49;2.65;;;2.50;;
67564;SDS011;54393;53.556;49.216;2022-12-18T17:14:17;2.45;;;2.30;;
67564;SDS011;54393;53.556;49.216;2022-12-18T17:16:45;2.60;;;2.40;;
67564;SDS011;54393;53.556;49.216;2022-12-18T17:19:12;2.35;;;2.25;;
67564;SDS011;54393;53.556;49.216;2022-12-18T17:21:41;2.70;;;2.55;;